sensor_id;sensor_type;location;lat;lon;timestamp;P1;durP1;ratioP1;P2;durP2;ratioP2
14052;SDS011;7101;51.600;7.310;2022-08-01T00:01:45;11.57;;;10.35;;
14052;SDS011;7101;51.600;7.310;2022-08-01T00:04:12;12.85;;;11.05;;
14052;SDS011;7101;51.600;7.310;2022-08-01T00:06:38;13.48;;;11.00;;
14052;SDS011;7101;51.600;7.310;2022-08-01T00:09:05;13.52;;;11.98;;
14052;SDS011;7101;51.600;7.310;2022-08-01T00:11:32;13.57;;;11.50;;
14052;SDS011;7101;51.600;7.310;2022-08-01T00:14:00;12.25;;;11.05;;
14052;SDS011;7101;51.600;7.310;2022-08-01T00:16:27;12.95;;;11.70;;
14052;SDS011;7101;51.600;7.310;2022-08-01T00:18:54;14.20;;;12.68;;
14052;SDS011;7101;51.600;7.310;2022-08-01T00:21:21;15.63;;;12.60;;
14052;SDS011;7101;51.600;7.310;2022-08-01T00:23:48;15.48;;;13.60;;
14052;SDS011;7101;51.600;7.310;2022-08-01T00:26:14;15.82;;;13.27;;
14052;SDS011;7101;51.600;7.310;2022-08-01T00:28:41;18.08;;;13.93;;
14052;SDS011;7101;51.600;7.310;2022-08-01T00:31:09;15.43;;;13.68;;
14052;SDS011;7101;51.600;7.310;2022-08-01T00:33:36;16.73;;;15.02;;
14052;SDS011;7101;51.600;7.310;2022-08-01T00:36:03;16.35;;;14.68;;
14052;SDS011;7101;51.600;7.310;2022-08-01T00:38:30;17.60;;;15.07;;
14052;SDS011;7101;51.600;7.310;2022-08-01T00:40:56;17.40;;;15.57;;
14052;SDS011;7101;51.600;7.310;2022-08-01T00:43:23;20.10;;;15.38;;
14052;SDS011;7101;51.600;7.310;2022-08-01T00:45:50;17.98;;;14.68;;
14052;SDS011;7101;51.600;7.310;2022-08-01T00:48:18;20.02;;;14.90;;
14052;SDS011;7101;51.600;7.310;2022-08-01T00:50:45;17.90;;;15.13;;
14052;SDS011;7101;51.600;7.310;2022-08-01T00:53:12;18.02;;;15.32;;
14052;SDS011;7101;51.600;7.310;2022-08-01T00:55:39;19.52;;;14.68;;
14052;SDS011;7101;51.600;7.310;2022-08-01T00:58:06;20.40;;;14.77;;
14052;SDS011;7101;51.600;7.310;2022-08-01T01:00:34;17.00;;;14.25;;
14052;SDS011;7101;51.600;7.310;2022-08-01T01:03:01;17.15;;;14.25;;
14052;SDS011;7101;51.600;7.310;2022-08-01T01:05:30;16.30;;;14.65;;
14052;SDS011;7101;51.600;7.310;2022-08-01T01:08:02;18.63;;;14.55;;
14052;SDS011;7101;51.600;7.310;2022-08-01T01:10:36;16.60;;;13.82;;
14052;SDS011;7101;51.600;7.310;2022-08-01T01:13:10;16.67;;;14.45;;
14052;SDS011;7101;51.600;7.310;2022-08-01T01:15:43;15.50;;;13.98;;
14052;SDS011;7101;51.600;7.310;2022-08-01T01:18:15;17.42;;;14.63;;
14052;SDS011;7101;51.600;7.310;2022-08-01T01:20:49;16.45;;;13.95;;
14052;SDS011;7101;51.600;7.310;2022-08-01T01:23:28;19.58;;;15.00;;
14052;SDS011;7101;51.600;7.310;2022-08-01T01:26:17;17.00;;;14.88;;
14052;SDS011;7101;51.600;7.310;2022-08-01T01:29:02;16.92;;;15.07;;
14052;SDS011;7101;51.600;7.310;2022-08-01T01:31:33;17.48;;;15.68;;
14052;SDS011;7101;51.600;7.310;2022-08-01T01:34:06;17.17;;;15.35;;
14052;SDS011;7101;51.600;7.310;2022-08-01T01:36:35;16.95;;;15.00;;
14052;SDS011;7101;51.600;7.310;2022-08-01T01:39:03;17.75;;;15.95;;
14052;SDS011;7101;51.600;7.310;2022-08-01T01:41:31;23.13;;;16.20;;
14052;SDS011;7101;51.600;7.310;2022-08-01T01:43:59;18.00;;;16.08;;
14052;SDS011;7101;51.600;7.310;2022-08-01T01:46:30;17.50;;;15.73;;
14052;SDS011;7101;51.600;7.310;2022-08-01T01:48:58;18.05;;;15.95;;
14052;SDS011;7101;51.600;7.310;2022-08-01T01:51:27;18.60;;;15.13;;
14052;SDS011;7101;51.600;7.310;2022-08-01T01:53:55;17.52;;;15.05;;
14052;SDS011;7101;51.600;7.310;2022-08-01T01:56:24;19.55;;;15.90;;
14052;SDS011;7101;51.600;7.310;2022-08-01T01:58:55;18.48;;;15.85;;
14052;SDS011;7101;51.600;7.310;2022-08-01T02:01:27;16.92;;;15.13;;
14052;SDS011;7101;51.600;7.310;2022-08-01T02:03:57;17.67;;;14.73;;
14052;SDS011;7101;51.600;7.310;2022-08-01T02:06:27;18.02;;;15.48;;
14052;SDS011;7101;51.600;7.310;2022-08-01T02:08:55;17.60;;;14.80;;
14052;SDS011;7101;51.600;7.310;2022-08-01T02:11:23;17.08;;;14.38;;
14052;SDS011;7101;51.600;7.310;2022-08-01T02:13:52;14.85;;;13.35;;
14052;SDS011;7101;51.600;7.310;2022-08-01T02:16:22;15.68;;;13.80;;
14052;SDS011;7101;51.600;7.310;2022-08-01T02:18:53;16.08;;;14.23;;
14052;SDS011;7101;51.600;7.310;2022-08-01T02:21:23;15.70;;;13.52;;
14052;SDS011;7101;51.600;7.310;2022-08-01T02:23:53;15.02;;;13.30;;
14052;SDS011;7101;51.600;7.310;2022-08-01T02:26:24;17.92;;;13.45;;
14052;SDS011;7101;51.600;7.310;2022-08-01T02:28:54;16.58;;;13.63;;
14052;SDS011;7101;51.600;7.310;2022-08-01T02:31:24;17.60;;;13.88;;
14052;SDS011;7101;51.600;7.310;2022-08-01T02:33:56;14.68;;;12.73;;
14052;SDS011;7101;51.600;7.310;2022-08-01T02:36:28;18.95;;;13.85;;
14052;SDS011;7101;51.600;7.310;2022-08-01T02:38:56;15.75;;;13.38;;
14052;SDS011;7101;51.600;7.310;2022-08-01T02:41:24;16.55;;;13.88;;
14052;SDS011;7101;51.600;7.310;2022-08-01T02:43:53;15.02;;;13.13;;
14052;SDS011;7101;51.600;7.310;2022-08-01T02:46:25;16.73;;;13.35;;
14052;SDS011;7101;51.600;7.310;2022-08-01T02:48:59;16.38;;;13.07;;
14052;SDS011;7101;51.600;7.310;2022-08-01T02:51:28;17.27;;;12.60;;
14052;SDS011;7101;51.600;7.310;2022-08-01T02:53:57;19.35;;;13.63;;
14052;SDS011;7101;51.600;7.310;2022-08-01T02:56:27;15.50;;;13.02;;
14052;SDS011;7101;51.600;7.310;2022-08-01T02:59:01;18.40;;;12.63;;
14052;SDS011;7101;51.600;7.310;2022-08-01T03:01:30;15.02;;;12.50;;
14052;SDS011;7101;51.600;7.310;2022-08-01T03:04:01;14.55;;;13.05;;
14052;SDS011;7101;51.600;7.310;2022-08-01T03:06:30;18.02;;;13.80;;
14052;SDS011;7101;51.600;7.310;2022-08-01T03:08:58;18.05;;;13.27;;
14052;SDS011;7101;51.600;7.310;2022-08-01T03:11:26;16.05;;;13.10;;
14052;SDS011;7101;51.600;7.310;2022-08-01T03:13:55;17.73;;;13.13;;
14052;SDS011;7101;51.600;7.310;2022-08-01T03:16:24;17.55;;;14.30;;
14052;SDS011;7101;51.600;7.310;2022-08-01T03:18:53;17.00;;;13.85;;
14052;SDS011;7101;51.600;7.310;2022-08-01T03:21:23;15.27;;;13.60;;
14052;SDS011;7101;51.600;7.310;2022-08-01T03:23:51;17.95;;;13.50;;
14052;SDS011;7101;51.600;7.310;2022-08-01T03:26:22;15.07;;;13.30;;
14052;SDS011;7101;51.600;7.310;2022-08-01T03:28:52;16.15;;;13.88;;
14052;SDS011;7101;51.600;7.310;2022-08-01T03:31:22;15.40;;;12.25;;
14052;SDS011;7101;51.600;7.310;2022-08-01T03:33:50;13.75;;;11.02;;
14052;SDS011;7101;51.600;7.310;2022-08-01T03:36:17;16.13;;;10.52;;
14052;SDS011;7101;51.600;7.310;2022-08-01T03:38:51;13.13;;;10.13;;
14052;SDS011;7101;51.600;7.310;2022-08-01T03:41:21;14.43;;;10.25;;
14052;SDS011;7101;51.600;7.310;2022-08-01T03:44:03;11.35;;;9.75;;
14052;SDS011;7101;51.600;7.310;2022-08-01T03:46:35;11.65;;;9.23;;
14052;SDS011;7101;51.600;7.310;2022-08-01T03:49:09;11.13;;;8.45;;
14052;SDS011;7101;51.600;7.310;2022-08-01T03:51:40;16.10;;;9.45;;
14052;SDS011;7101;51.600;7.310;2022-08-01T03:54:08;12.20;;;9.40;;
14052;SDS011;7101;51.600;7.310;2022-08-01T03:56:37;11.05;;;8.77;;
14052;SDS011;7101;51.600;7.310;2022-08-01T03:59:05;10.18;;;8.82;;
14052;SDS011;7101;51.600;7.310;2022-08-01T04:01:32;11.43;;;9.32;;
14052;SDS011;7101;51.600;7.310;2022-08-01T04:04:00;12.02;;;9.68;;
14052;SDS011;7101;51.600;7.310;2022-08-01T04:06:30;13.95;;;10.15;;
14052;SDS011;7101;51.600;7.310;2022-08-01T04:08:57;14.00;;;9.60;;
14052;SDS011;7101;51.600;7.310;2022-08-01T04:11:26;14.55;;;10.20;;
14052;SDS011;7101;51.600;7.310;2022-08-01T04:13:54;11.10;;;9.88;;
14052;SDS011;7101;51.600;7.310;2022-08-01T04:16:22;15.10;;;11.05;;
14052;SDS011;7101;51.600;7.310;2022-08-01T04:18:49;17.20;;;11.07;;
14052;SDS011;7101;51.600;7.310;2022-08-01T04:21:17;14.48;;;11.10;;
14052;SDS011;7101;51.600;7.310;2022-08-01T04:23:48;15.02;;;10.65;;
14052;SDS011;7101;51.600;7.310;2022-08-01T04:26:17;13.80;;;10.75;;
14052;SDS011;7101;51.600;7.310;2022-08-01T04:28:47;13.10;;;10.48;;
14052;SDS011;7101;51.600;7.310;2022-08-01T04:31:16;13.10;;;9.73;;
14052;SDS011;7101;51.600;7.310;2022-08-01T04:33:44;12.23;;;8.98;;
14052;SDS011;7101;51.600;7.310;2022-08-01T04:36:14;15.45;;;10.00;;
14052;SDS011;7101;51.600;7.310;2022-08-01T04:38:45;14.80;;;9.02;;
14052;SDS011;7101;51.600;7.310;2022-08-01T04:41:16;11.27;;;8.90;;
14052;SDS011;7101;51.600;7.310;2022-08-01T04:43:46;11.73;;;9.35;;
14052;SDS011;7101;51.600;7.310;2022-08-01T04:46:13;11.30;;;9.13;;
14052;SDS011;7101;51.600;7.310;2022-08-01T04:48:42;12.73;;;8.70;;
14052;SDS011;7101;51.600;7.310;2022-08-01T04:51:13;11.77;;;9.40;;
14052;SDS011;7101;51.600;7.310;2022-08-01T04:53:41;11.73;;;9.43;;
14052;SDS011;7101;51.600;7.310;2022-08-01T04:56:08;11.98;;;9.05;;
14052;SDS011;7101;51.600;7.310;2022-08-01T04:58:38;12.50;;;8.98;;
14052;SDS011;7101;51.600;7.310;2022-08-01T05:01:07;12.02;;;9.73;;
14052;SDS011;7101;51.600;7.310;2022-08-01T05:03:34;11.02;;;9.13;;
14052;SDS011;7101;51.600;7.310;2022-08-01T05:06:01;12.50;;;9.10;;
14052;SDS011;7101;51.600;7.310;2022-08-01T05:08:29;11.32;;;9.95;;
14052;SDS011;7101;51.600;7.310;2022-08-01T05:10:56;15.23;;;10.40;;
14052;SDS011;7101;51.600;7.310;2022-08-01T05:13:23;14.05;;;9.43;;
14052;SDS011;7101;51.600;7.310;2022-08-01T05:15:50;16.13;;;9.50;;
14052;SDS011;7101;51.600;7.310;2022-08-01T05:18:18;12.02;;;9.55;;
14052;SDS011;7101;51.600;7.310;2022-08-01T05:20:46;13.05;;;9.70;;
14052;SDS011;7101;51.600;7.310;2022-08-01T05:23:13;11.35;;;9.38;;
14052;SDS011;7101;51.600;7.310;2022-08-01T05:25:40;14.88;;;9.55;;
14052;SDS011;7101;51.600;7.310;2022-08-01T05:28:07;10.93;;;9.40;;
14052;SDS011;7101;51.600;7.310;2022-08-01T05:30:34;11.80;;;10.05;;
14052;SDS011;7101;51.600;7.310;2022-08-01T05:33:00;11.25;;;9.27;;
14052;SDS011;7101;51.600;7.310;2022-08-01T05:35:28;13.98;;;9.68;;
14052;SDS011;7101;51.600;7.310;2022-08-01T05:37:55;12.82;;;8.77;;
14052;SDS011;7101;51.600;7.310;2022-08-01T05:40:22;12.63;;;9.27;;
14052;SDS011;7101;51.600;7.310;2022-08-01T05:42:50;10.35;;;8.65;;
14052;SDS011;7101;51.600;7.310;2022-08-01T05:45:16;8.88;;;7.97;;
14052;SDS011;7101;51.600;7.310;2022-08-01T05:47:43;9.40;;;7.80;;
14052;SDS011;7101;51.600;7.310;2022-08-01T05:50:10;10.13;;;7.70;;
14052;SDS011;7101;51.600;7.310;2022-08-01T05:52:38;9.10;;;7.40;;
14052;SDS011;7101;51.600;7.310;2022-08-01T05:55:05;10.93;;;7.47;;
14052;SDS011;7101;51.600;7.310;2022-08-01T05:57:33;7.95;;;6.75;;
14052;SDS011;7101;51.600;7.310;2022-08-01T06:00:00;10.60;;;7.68;;
14052;SDS011;7101;51.600;7.310;2022-08-01T06:02:28;8.45;;;7.00;;
14052;SDS011;7101;51.600;7.310;2022-08-01T06:04:54;11.50;;;7.35;;
14052;SDS011;7101;51.600;7.310;2022-08-01T06:07:21;10.00;;;7.95;;
14052;SDS011;7101;51.600;7.310;2022-08-01T06:09:49;10.18;;;7.97;;
14052;SDS011;7101;51.600;7.310;2022-08-01T06:12:16;11.60;;;8.63;;
14052;SDS011;7101;51.600;7.310;2022-08-01T06:14:43;11.90;;;8.82;;
14052;SDS011;7101;51.600;7.310;2022-08-01T06:17:10;9.50;;;8.27;;
14052;SDS011;7101;51.600;7.310;2022-08-01T06:19:36;9.45;;;8.45;;
14052;SDS011;7101;51.600;7.310;2022-08-01T06:22:03;8.88;;;7.97;;
14052;SDS011;7101;51.600;7.310;2022-08-01T06:24:30;9.63;;;7.75;;
14052;SDS011;7101;51.600;7.310;2022-08-01T06:26:58;12.45;;;8.00;;
14052;SDS011;7101;51.600;7.310;2022-08-01T06:29:25;10.27;;;7.25;;
14052;SDS011;7101;51.600;7.310;2022-08-01T06:31:52;7.35;;;6.50;;
14052;SDS011;7101;51.600;7.310;2022-08-01T06:34:18;6.80;;;6.03;;
14052;SDS011;7101;51.600;7.310;2022-08-01T06:36:46;7.15;;;5.80;;
14052;SDS011;7101;51.600;7.310;2022-08-01T06:39:13;9.02;;;5.68;;
14052;SDS011;7101;51.600;7.310;2022-08-01T06:41:41;6.47;;;5.07;;
14052;SDS011;7101;51.600;7.310;2022-08-01T06:44:12;6.38;;;5.53;;
14052;SDS011;7101;51.600;7.310;2022-08-01T06:46:39;6.75;;;5.47;;
14052;SDS011;7101;51.600;7.310;2022-08-01T06:49:06;8.48;;;5.22;;
14052;SDS011;7101;51.600;7.310;2022-08-01T06:51:33;9.85;;;5.18;;
14052;SDS011;7101;51.600;7.310;2022-08-01T06:54:00;6.55;;;5.30;;
14052;SDS011;7101;51.600;7.310;2022-08-01T06:56:27;7.30;;;4.85;;
14052;SDS011;7101;51.600;7.310;2022-08-01T06:58:54;7.40;;;5.60;;
14052;SDS011;7101;51.600;7.310;2022-08-01T07:01:27;8.63;;;5.80;;
14052;SDS011;7101;51.600;7.310;2022-08-01T07:03:54;7.38;;;6.25;;
14052;SDS011;7101;51.600;7.310;2022-08-01T07:06:21;7.97;;;6.43;;
14052;SDS011;7101;51.600;7.310;2022-08-01T07:08:48;6.38;;;5.70;;
14052;SDS011;7101;51.600;7.310;2022-08-01T07:11:15;8.20;;;5.70;;
14052;SDS011;7101;51.600;7.310;2022-08-01T07:13:42;7.28;;;5.15;;
14052;SDS011;7101;51.600;7.310;2022-08-01T07:16:10;6.70;;;5.63;;
14052;SDS011;7101;51.600;7.310;2022-08-01T07:18:39;6.45;;;5.10;;
14052;SDS011;7101;51.600;7.310;2022-08-01T07:21:06;7.43;;;5.15;;
14052;SDS011;7101;51.600;7.310;2022-08-01T07:23:33;5.88;;;4.82;;
14052;SDS011;7101;51.600;7.310;2022-08-01T07:26:00;5.05;;;4.22;;
14052;SDS011;7101;51.600;7.310;2022-08-01T07:28:29;6.00;;;4.05;;
14052;SDS011;7101;51.600;7.310;2022-08-01T07:30:56;4.47;;;3.63;;
14052;SDS011;7101;51.600;7.310;2022-08-01T07:33:22;4.38;;;3.97;;
14052;SDS011;7101;51.600;7.310;2022-08-01T07:35:51;8.70;;;4.97;;
14052;SDS011;7101;51.600;7.310;2022-08-01T07:38:17;5.57;;;4.95;;
14052;SDS011;7101;51.600;7.310;2022-08-01T07:40:44;5.82;;;4.90;;
14052;SDS011;7101;51.600;7.310;2022-08-01T07:43:11;4.70;;;3.97;;
14052;SDS011;7101;51.600;7.310;2022-08-01T07:45:38;3.75;;;3.20;;
14052;SDS011;7101;51.600;7.310;2022-08-01T07:48:06;2.50;;;2.30;;
14052;SDS011;7101;51.600;7.310;2022-08-01T07:50:33;4.13;;;2.20;;
14052;SDS011;7101;51.600;7.310;2022-08-01T07:53:02;2.95;;;2.30;;
14052;SDS011;7101;51.600;7.310;2022-08-01T07:55:29;2.72;;;2.45;;
14052;SDS011;7101;51.600;7.310;2022-08-01T07:57:56;3.08;;;1.80;;
14052;SDS011;7101;51.600;7.310;2022-08-01T08:00:23;3.28;;;2.20;;
14052;SDS011;7101;51.600;7.310;2022-08-01T08:02:49;3.40;;;2.42;;
14052;SDS011;7101;51.600;7.310;2022-08-01T08:05:16;2.63;;;2.10;;
14052;SDS011;7101;51.600;7.310;2022-08-01T08:07:43;2.85;;;2.10;;
14052;SDS011;7101;51.600;7.310;2022-08-01T08:10:11;4.65;;;2.22;;
14052;SDS011;7101;51.600;7.310;2022-08-01T08:12:38;4.13;;;2.00;;
14052;SDS011;7101;51.600;7.310;2022-08-01T08:15:05;3.58;;;2.30;;
14052;SDS011;7101;51.600;7.310;2022-08-01T08:17:32;3.13;;;2.45;;
14052;SDS011;7101;51.600;7.310;2022-08-01T08:20:00;3.90;;;3.35;;
14052;SDS011;7101;51.600;7.310;2022-08-01T08:22:27;5.55;;;3.70;;
14052;SDS011;7101;51.600;7.310;2022-08-01T08:24:54;5.40;;;4.45;;
14052;SDS011;7101;51.600;7.310;2022-08-01T08:27:22;4.45;;;4.03;;
14052;SDS011;7101;51.600;7.310;2022-08-01T08:29:49;3.40;;;3.10;;
14052;SDS011;7101;51.600;7.310;2022-08-01T08:32:16;3.35;;;3.05;;
14052;SDS011;7101;51.600;7.310;2022-08-01T08:34:43;3.17;;;2.83;;
14052;SDS011;7101;51.600;7.310;2022-08-01T08:37:09;4.10;;;2.40;;
14052;SDS011;7101;51.600;7.310;2022-08-01T08:39:36;1.95;;;1.80;;
14052;SDS011;7101;51.600;7.310;2022-08-01T08:42:06;2.00;;;1.80;;
14052;SDS011;7101;51.600;7.310;2022-08-01T08:44:34;3.70;;;2.25;;
14052;SDS011;7101;51.600;7.310;2022-08-01T08:47:02;1.80;;;1.70;;
14052;SDS011;7101;51.600;7.310;2022-08-01T08:49:31;1.40;;;1.30;;
14052;SDS011;7101;51.600;7.310;2022-08-01T08:51:58;2.70;;;1.80;;
14052;SDS011;7101;51.600;7.310;2022-08-01T08:54:27;5.63;;;1.88;;
14052;SDS011;7101;51.600;7.310;2022-08-01T08:56:56;1.60;;;1.50;;
14052;SDS011;7101;51.600;7.310;2022-08-01T08:59:24;1.70;;;1.50;;
14052;SDS011;7101;51.600;7.310;2022-08-01T09:01:53;1.67;;;1.30;;
14052;SDS011;7101;51.600;7.310;2022-08-01T09:04:20;1.55;;;1.45;;
14052;SDS011;7101;51.600;7.310;2022-08-01T09:06:48;1.60;;;1.50;;
14052;SDS011;7101;51.600;7.310;2022-08-01T09:09:15;1.65;;;1.38;;
14052;SDS011;7101;51.600;7.310;2022-08-01T09:11:42;2.15;;;1.08;;
14052;SDS011;7101;51.600;7.310;2022-08-01T09:14:10;1.77;;;1.33;;
14052;SDS011;7101;51.600;7.310;2022-08-01T09:16:39;1.60;;;1.30;;
14052;SDS011;7101;51.600;7.310;2022-08-01T09:19:10;1.13;;;1.02;;
14052;SDS011;7101;51.600;7.310;2022-08-01T09:21:38;1.10;;;1.00;;
14052;SDS011;7101;51.600;7.310;2022-08-01T09:24:20;1.48;;;1.00;;
14052;SDS011;7101;51.600;7.310;2022-08-01T09:26:47;2.22;;;1.38;;
14052;SDS011;7101;51.600;7.310;2022-08-01T09:29:19;2.08;;;1.23;;
14052;SDS011;7101;51.600;7.310;2022-08-01T09:31:52;1.20;;;1.10;;
14052;SDS011;7101;51.600;7.310;2022-08-01T09:34:24;1.20;;;1.10;;
14052;SDS011;7101;51.600;7.310;2022-08-01T09:36:53;1.20;;;1.05;;
14052;SDS011;7101;51.600;7.310;2022-08-01T09:39:22;1.10;;;1.00;;
14052;SDS011;7101;51.600;7.310;2022-08-01T09:41:50;4.63;;;1.83;;
14052;SDS011;7101;51.600;7.310;2022-08-01T09:44:18;1.38;;;1.10;;
14052;SDS011;7101;51.600;7.310;2022-08-01T09:46:49;2.45;;;0.90;;
14052;SDS011;7101;51.600;7.310;2022-08-01T09:49:26;1.10;;;1.00;;
14052;SDS011;7101;51.600;7.310;2022-08-01T09:51:56;2.63;;;1.00;;
14052;SDS011;7101;51.600;7.310;2022-08-01T09:54:30;2.15;;;1.13;;
14052;SDS011;7101;51.600;7.310;2022-08-01T09:57:08;1.08;;;0.90;;
14052;SDS011;7101;51.600;7.310;2022-08-01T09:59:37;1.02;;;0.90;;
14052;SDS011;7101;51.600;7.310;2022-08-01T10:02:07;1.45;;;0.60;;
14052;SDS011;7101;51.600;7.310;2022-08-01T10:04:36;2.35;;;0.75;;
14052;SDS011;7101;51.600;7.310;2022-08-01T10:07:04;0.80;;;0.63;;
14052;SDS011;7101;51.600;7.310;2022-08-01T10:09:33;2.00;;;0.70;;
14052;SDS011;7101;51.600;7.310;2022-08-01T10:12:02;1.58;;;0.70;;
14052;SDS011;7101;51.600;7.310;2022-08-01T10:14:30;1.05;;;0.70;;
14052;SDS011;7101;51.600;7.310;2022-08-01T10:16:58;0.70;;;0.70;;
14052;SDS011;7101;51.600;7.310;2022-08-01T10:19:28;0.80;;;0.70;;
14052;SDS011;7101;51.600;7.310;2022-08-01T10:21:58;0.88;;;0.57;;
14052;SDS011;7101;51.600;7.310;2022-08-01T10:24:28;0.68;;;0.63;;
14052;SDS011;7101;51.600;7.310;2022-08-01T10:26:57;2.35;;;0.57;;
14052;SDS011;7101;51.600;7.310;2022-08-01T10:29:28;2.30;;;0.60;;
14052;SDS011;7101;51.600;7.310;2022-08-01T10:32:00;1.05;;;0.70;;
14052;SDS011;7101;51.600;7.310;2022-08-01T10:34:27;1.00;;;0.70;;
14052;SDS011;7101;51.600;7.310;2022-08-01T10:36:55;1.33;;;1.05;;
14052;SDS011;7101;51.600;7.310;2022-08-01T10:39:24;1.45;;;0.80;;
14052;SDS011;7101;51.600;7.310;2022-08-01T10:41:53;0.65;;;0.65;;
14052;SDS011;7101;51.600;7.310;2022-08-01T10:44:21;0.80;;;0.60;;
14052;SDS011;7101;51.600;7.310;2022-08-01T10:46:50;8.90;;;2.05;;
14052;SDS011;7101;51.600;7.310;2022-08-01T10:49:20;1.55;;;0.68;;
14052;SDS011;7101;51.600;7.310;2022-08-01T10:51:50;0.95;;;0.68;;
14052;SDS011;7101;51.600;7.310;2022-08-01T10:54:17;0.80;;;0.50;;
14052;SDS011;7101;51.600;7.310;2022-08-01T10:56:46;3.28;;;1.73;;
14052;SDS011;7101;51.600;7.310;2022-08-01T10:59:15;1.02;;;0.57;;
14052;SDS011;7101;51.600;7.310;2022-08-01T11:01:55;2.35;;;0.60;;
14052;SDS011;7101;51.600;7.310;2022-08-01T11:04:31;2.10;;;0.50;;
14052;SDS011;7101;51.600;7.310;2022-08-01T11:07:03;0.50;;;0.50;;
14052;SDS011;7101;51.600;7.310;2022-08-01T11:09:39;2.15;;;0.50;;
14052;SDS011;7101;51.600;7.310;2022-08-01T11:12:11;0.73;;;0.40;;
14052;SDS011;7101;51.600;7.310;2022-08-01T11:17:49;1.95;;;0.50;;
14052;SDS011;7101;51.600;7.310;2022-08-01T11:20:17;0.77;;;0.50;;
14052;SDS011;7101;51.600;7.310;2022-08-01T11:28:40;0.50;;;0.50;;
14052;SDS011;7101;51.600;7.310;2022-08-01T11:33:54;1.38;;;0.40;;
14052;SDS011;7101;51.600;7.310;2022-08-01T11:36:21;0.43;;;0.43;;
14052;SDS011;7101;51.600;7.310;2022-08-01T11:38:49;0.50;;;0.50;;
14052;SDS011;7101;51.600;7.310;2022-08-01T11:41:37;1.58;;;0.38;;
14052;SDS011;7101;51.600;7.310;2022-08-01T11:44:06;1.13;;;0.50;;
14052;SDS011;7101;51.600;7.310;2022-08-01T11:46:47;0.45;;;0.45;;
14052;SDS011;7101;51.600;7.310;2022-08-01T11:49:42;1.15;;;0.60;;
14052;SDS011;7101;51.600;7.310;2022-08-01T11:52:13;0.50;;;0.50;;
14052;SDS011;7101;51.600;7.310;2022-08-01T11:54:42;0.77;;;0.60;;
14052;SDS011;7101;51.600;7.310;2022-08-01T11:57:10;0.50;;;0.50;;
14052;SDS011;7101;51.600;7.310;2022-08-01T11:59:40;0.50;;;0.50;;
14052;SDS011;7101;51.600;7.310;2022-08-01T12:02:17;0.75;;;0.60;;
14052;SDS011;7101;51.600;7.310;2022-08-01T12:04:46;0.50;;;0.50;;
14052;SDS011;7101;51.600;7.310;2022-08-01T12:07:14;1.05;;;0.65;;
14052;SDS011;7101;51.600;7.310;2022-08-01T12:09:42;2.13;;;0.65;;
14052;SDS011;7101;51.600;7.310;2022-08-01T12:12:09;4.85;;;0.90;;
14052;SDS011;7101;51.600;7.310;2022-08-01T12:14:36;1.38;;;0.60;;
14052;SDS011;7101;51.600;7.310;2022-08-01T12:17:05;0.73;;;0.63;;
14052;SDS011;7101;51.600;7.310;2022-08-01T12:19:32;0.63;;;0.63;;
14052;SDS011;7101;51.600;7.310;2022-08-01T12:22:05;0.70;;;0.70;;
14052;SDS011;7101;51.600;7.310;2022-08-01T12:24:33;1.13;;;0.70;;
14052;SDS011;7101;51.600;7.310;2022-08-01T12:26:59;3.83;;;0.60;;
14052;SDS011;7101;51.600;7.310;2022-08-01T12:29:33;0.95;;;0.50;;
14052;SDS011;7101;51.600;7.310;2022-08-01T12:32:01;0.30;;;0.30;;
14052;SDS011;7101;51.600;7.310;2022-08-01T12:34:30;0.60;;;0.60;;
14052;SDS011;7101;51.600;7.310;2022-08-01T12:37:00;0.60;;;0.55;;
14052;SDS011;7101;51.600;7.310;2022-08-01T12:39:34;0.60;;;0.60;;
14052;SDS011;7101;51.600;7.310;2022-08-01T12:42:01;0.70;;;0.70;;
14052;SDS011;7101;51.600;7.310;2022-08-01T12:44:32;1.38;;;0.82;;
14052;SDS011;7101;51.600;7.310;2022-08-01T12:47:00;1.13;;;0.85;;
14052;SDS011;7101;51.600;7.310;2022-08-01T12:49:28;2.42;;;0.85;;
14052;SDS011;7101;51.600;7.310;2022-08-01T12:51:57;1.60;;;1.00;;
14052;SDS011;7101;51.600;7.310;2022-08-01T12:54:24;2.33;;;0.90;;
14052;SDS011;7101;51.600;7.310;2022-08-01T12:56:51;4.10;;;0.90;;
14052;SDS011;7101;51.600;7.310;2022-08-01T12:59:19;1.25;;;0.90;;
14052;SDS011;7101;51.600;7.310;2022-08-01T13:01:47;1.60;;;1.00;;
14052;SDS011;7101;51.600;7.310;2022-08-01T13:04:14;1.35;;;0.90;;
14052;SDS011;7101;51.600;7.310;2022-08-01T13:06:41;1.88;;;1.10;;
14052;SDS011;7101;51.600;7.310;2022-08-01T13:09:09;1.60;;;1.00;;
14052;SDS011;7101;51.600;7.310;2022-08-01T13:11:38;2.95;;;1.00;;
14052;SDS011;7101;51.600;7.310;2022-08-01T13:14:05;1.45;;;0.90;;
14052;SDS011;7101;51.600;7.310;2022-08-01T13:16:34;1.42;;;0.90;;
14052;SDS011;7101;51.600;7.310;2022-08-01T13:19:12;0.90;;;0.80;;
14052;SDS011;7101;51.600;7.310;2022-08-01T13:21:40;0.77;;;0.77;;
14052;SDS011;7101;51.600;7.310;2022-08-01T13:24:25;0.90;;;0.90;;
14052;SDS011;7101;51.600;7.310;2022-08-01T13:26:53;1.27;;;0.70;;
14052;SDS011;7101;51.600;7.310;2022-08-01T13:29:31;3.10;;;1.02;;
14052;SDS011;7101;51.600;7.310;2022-08-01T13:31:59;1.55;;;0.98;;
14052;SDS011;7101;51.600;7.310;2022-08-01T13:34:29;0.80;;;0.70;;
14052;SDS011;7101;51.600;7.310;2022-08-01T13:36:57;1.00;;;0.73;;
14052;SDS011;7101;51.600;7.310;2022-08-01T13:39:25;1.15;;;0.70;;
14052;SDS011;7101;51.600;7.310;2022-08-01T13:42:07;23.17;;;2.63;;
14052;SDS011;7101;51.600;7.310;2022-08-01T13:44:34;11.07;;;1.60;;
14052;SDS011;7101;51.600;7.310;2022-08-01T13:47:01;1.13;;;0.80;;
14052;SDS011;7101;51.600;7.310;2022-08-01T13:49:28;1.10;;;0.70;;
14052;SDS011;7101;51.600;7.310;2022-08-01T13:51:55;1.85;;;0.98;;
14052;SDS011;7101;51.600;7.310;2022-08-01T13:54:22;2.53;;;1.08;;
14052;SDS011;7101;51.600;7.310;2022-08-01T13:56:51;1.00;;;0.80;;
14052;SDS011;7101;51.600;7.310;2022-08-01T13:59:18;2.78;;;0.80;;
14052;SDS011;7101;51.600;7.310;2022-08-01T14:01:46;2.70;;;0.90;;
14052;SDS011;7101;51.600;7.310;2022-08-01T14:04:13;2.05;;;0.80;;
14052;SDS011;7101;51.600;7.310;2022-08-01T14:06:40;1.48;;;1.00;;
14052;SDS011;7101;51.600;7.310;2022-08-01T14:09:07;3.92;;;1.25;;
14052;SDS011;7101;51.600;7.310;2022-08-01T14:11:34;1.40;;;1.00;;
14052;SDS011;7101;51.600;7.310;2022-08-01T14:14:02;2.85;;;1.10;;
14052;SDS011;7101;51.600;7.310;2022-08-01T14:16:29;1.88;;;0.95;;
14052;SDS011;7101;51.600;7.310;2022-08-01T14:18:56;3.30;;;1.05;;
14052;SDS011;7101;51.600;7.310;2022-08-01T14:21:23;1.17;;;1.00;;
14052;SDS011;7101;51.600;7.310;2022-08-01T14:23:50;1.80;;;1.00;;
14052;SDS011;7101;51.600;7.310;2022-08-01T14:26:17;2.65;;;1.10;;
14052;SDS011;7101;51.600;7.310;2022-08-01T14:28:44;2.10;;;1.20;;
14052;SDS011;7101;51.600;7.310;2022-08-01T14:31:12;4.25;;;1.42;;
14052;SDS011;7101;51.600;7.310;2022-08-01T14:33:39;3.63;;;1.27;;
14052;SDS011;7101;51.600;7.310;2022-08-01T14:36:06;7.93;;;1.52;;
14052;SDS011;7101;51.600;7.310;2022-08-01T14:38:33;6.97;;;1.40;;
14052;SDS011;7101;51.600;7.310;2022-08-01T14:41:00;2.83;;;1.38;;
14052;SDS011;7101;51.600;7.310;2022-08-01T14:43:28;2.92;;;1.10;;
14052;SDS011;7101;51.600;7.310;2022-08-01T14:45:56;2.30;;;1.35;;
14052;SDS011;7101;51.600;7.310;2022-08-01T14:48:25;1.95;;;1.52;;
14052;SDS011;7101;51.600;7.310;2022-08-01T14:50:51;9.65;;;1.80;;
14052;SDS011;7101;51.600;7.310;2022-08-01T14:53:18;6.00;;;1.30;;
14052;SDS011;7101;51.600;7.310;2022-08-01T14:55:45;2.60;;;1.45;;
14052;SDS011;7101;51.600;7.310;2022-08-01T14:58:13;2.95;;;1.58;;
14052;SDS011;7101;51.600;7.310;2022-08-01T15:00:40;4.03;;;1.33;;
14052;SDS011;7101;51.600;7.310;2022-08-01T15:03:07;3.33;;;1.30;;
14052;SDS011;7101;51.600;7.310;2022-08-01T15:05:35;1.58;;;1.15;;
14052;SDS011;7101;51.600;7.310;2022-08-01T15:08:02;4.30;;;1.20;;
14052;SDS011;7101;51.600;7.310;2022-08-01T15:10:30;1.90;;;1.00;;
14052;SDS011;7101;51.600;7.310;2022-08-01T15:12:57;2.30;;;1.20;;
14052;SDS011;7101;51.600;7.310;2022-08-01T15:15:24;3.60;;;1.60;;